Time;durP1;ratioP1;P1;durP2;ratioP2;P2;SDS_P1;SDS_P2;PMS_P1;PMS_P2;Temp;Humidity;BMP_temperature;BMP_pressure;BME280_temperature;BME280_humidity;BME280_pressure;Samples;Min_cycle;Max_cycle;Signal;HPM_P1;HPM_P2
2022/06/12 20:02:18;;;;;;;10.57;7.03;;;;;;;23.64;48.25;99218.41;5103200;27;20615;-69
2022/06/12 20:07:31;;;;;;;10.63;8.23;;;;;;;23.74;48.85;99216.38;5103198;28;20044;-69
2022/06/12 20:10:01;;;;;;;11.63;8.23;;;;;;;23.82;49.35;99213.66;5102896;28;20056;-69
2022/06/12 20:12:30;;;;;;;9.30;7.35;;;;;;;23.88;49.87;99217.53;5102467;28;20063;-69
2022/06/12 20:14:58;;;;;;;10.27;6.32;;;;;;;23.93;49.42;99215.97;5102582;28;20055;-69
2022/06/12 20:17:28;;;;;;;7.28;6.57;;;;;;;23.97;49.94;99220.06;5102894;28;20063;-69
2022/06/12 20:19:55;;;;;;;8.77;7.88;;;;;;;23.99;49.74;99209.91;5102492;28;20063;-70
2022/06/12 20:22:23;;;;;;;20.40;18.17;;;;;;;23.68;49.84;99165.66;5102642;28;20040;-69
2022/06/12 20:24:50;;;;;;;21.92;19.75;;;;;;;23.97;49.91;99211.94;5102301;28;20047;-69
2022/06/12 20:27:18;;;;;;;11.70;10.13;;;;;;;23.96;50.08;99206.66;5102588;28;20208;-69
2022/06/12 20:29:46;;;;;;;8.73;7.72;;;;;;;23.97;50.13;99209.22;5102367;28;20056;-70
2022/06/12 20:32:14;;;;;;;8.38;7.47;;;;;;;24.00;49.87;99205.34;5102372;28;20052;-71
2022/06/12 20:34:45;;;;;;;11.27;10.18;;;;;;;23.97;50.25;99203.81;5102276;28;20048;-70
2022/06/12 20:37:12;;;;;;;13.38;12.02;;;;;;;23.96;50.04;99204.81;5102129;28;20048;-70
2022/06/12 20:39:40;;;;;;;14.48;12.57;;;;;;;23.93;50.23;99201.59;5102068;28;20219;-70
2022/06/12 20:42:08;;;;;;;12.07;10.30;;;;;;;23.89;50.46;99201.09;5102243;28;20053;-69
2022/06/12 20:44:35;;;;;;;9.35;8.40;;;;;;;23.99;50.14;99209.06;5101847;28;20181;-69
2022/06/12 20:47:04;;;;;;;12.38;10.30;;;;;;;23.93;50.07;99212.44;5102214;28;20067;-70
2022/06/12 20:49:31;;;;;;;15.27;13.70;;;;;;;23.91;50.41;99209.91;5100997;28;20052;-70
2022/06/12 20:52:00;;;;;;;14.48;13.07;;;;;;;23.79;50.19;99197.75;5101880;28;20055;-71
2022/06/12 20:54:27;;;;;;;9.77;8.60;;;;;;;23.71;50.46;99208.59;5102095;28;20323;-70
2022/06/12 20:56:54;;;;;;;9.35;8.45;;;;;;;23.74;50.53;99212.81;5102090;28;20075;-69
2022/06/12 20:59:22;;;;;;;11.18;9.82;;;;;;;23.75;50.69;99209.09;5102028;28;20071;-69
2022/06/12 21:01:50;;;;;;;10.88;9.80;;;;;;;23.76;50.59;99213.47;5101639;28;20052;-69
2022/06/12 21:04:17;;;;;;;9.10;7.97;;;;;;;23.68;50.59;99190.84;5101904;28;20219;-69
2022/06/12 21:06:44;;;;;;;14.07;11.95;;;;;;;23.79;50.79;99207.72;5101760;28;20048;-69
2022/06/12 21:09:13;;;;;;;20.13;16.13;;;;;;;23.58;50.96;99197.47;5101470;28;20306;-69
2022/06/12 21:11:42;;;;;;;24.80;22.15;;;;;;;23.69;51.08;99214.19;5099420;28;20060;-70
2022/06/12 21:14:09;;;;;;;26.80;23.58;;;;;;;23.64;51.10;99204.88;5088230;28;20136;-69
2022/06/12 21:16:37;;;;;;;18.83;16.85;;;;;;;23.65;51.08;99207.41;5087855;28;20220;-69
2022/06/12 21:19:04;;;;;;;17.20;15.23;;;;;;;23.67;51.03;99207.25;5088207;28;20060;-70
2022/06/12 21:21:32;;;;;;;11.95;10.68;;;;;;;23.60;51.25;99207.09;5087984;28;20063;-69
2022/06/12 21:23:59;;;;;;;9.02;8.10;;;;;;;23.53;51.33;99206.09;5087978;28;20197;-69
2022/06/12 21:26:29;;;;;;;10.60;7.18;;;;;;;23.43;51.61;99212.69;5087957;28;20056;-70
2022/06/12 21:28:57;;;;;;;7.65;6.18;;;;;;;23.40;51.58;99213.03;5087954;28;20052;-69
2022/06/12 21:31:26;;;;;;;9.13;5.65;;;;;;;23.42;51.32;99208.28;5087664;28;20067;-70
2022/06/12 21:33:53;;;;;;;6.10;5.03;;;;;;;23.31;51.69;99206.78;5086781;28;20055;-69
2022/06/12 21:36:20;;;;;;;6.35;5.05;;;;;;;23.22;51.83;99197.78;5087779;28;20052;-69
2022/06/12 21:38:47;;;;;;;5.82;4.82;;;;;;;23.09;51.85;99194.75;5087727;28;20057;-69
2022/06/12 21:41:15;;;;;;;7.70;6.43;;;;;;;23.18;51.94;99199.13;5087588;28;20057;-69
2022/06/12 21:43:43;;;;;;;7.15;6.32;;;;;;;23.00;52.29;99196.59;5087679;28;20057;-69
2022/06/12 21:46:11;;;;;;;7.07;4.95;;;;;;;22.73;52.37;99149.13;5087449;28;20056;-69
2022/06/12 21:48:39;;;;;;;7.82;6.88;;;;;;;22.90;53.00;99195.06;5087386;28;20053;-69
2022/06/12 21:51:06;;;;;;;7.03;5.30;;;;;;;21.08;52.94;98889.94;5087269;28;20098;-69
2022/06/12 21:56:18;;;;;;;4.82;4.35;;;;;;;22.78;52.90;99185.59;5087415;28;20094;-69
2022/06/12 21:58:47;;;;;;;6.72;4.65;;;;;;;22.74;53.14;99187.78;5087437;28;20117;-70
2022/06/12 22:01:15;;;;;;;6.38;4.90;;;;;;;22.57;53.55;99178.81;5086767;28;20060;-69
2022/06/12 22:03:42;;;;;;;8.45;6.97;;;;;;;22.48;53.52;99176.22;5087317;28;20378;-69
2022/06/12 22:06:09;;;;;;;11.35;8.00;;;;;;;22.51;53.35;99178.59;5087347;28;20056;-69
2022/06/12 22:08:37;;;;;;;9.70;7.05;;;;;;;22.47;53.35;99180.75;5087223;28;20105;-69
2022/06/12 22:11:04;;;;;;;6.72;5.82;;;;;;;22.56;52.96;99170.88;5087779;28;20106;-69
2022/06/12 22:13:32;;;;;;;6.90;5.40;;;;;;;22.55;52.55;99178.13;5087191;28;20070;-69
2022/06/12 22:16:01;;;;;;;5.07;4.57;;;;;;;22.53;52.56;99177.41;5087121;28;20056;-69
2022/06/12 22:18:28;;;;;;;6.20;4.53;;;;;;;22.58;51.87;99174.25;5086799;28;20067;-69
2022/06/12 22:20:56;;;;;;;5.32;4.15;;;;;;;22.56;51.77;99173.56;5087502;28;20117;-69
2022/06/12 22:23:23;;;;;;;3.42;3.05;;;;;;;22.45;51.57;99152.25;5086457;28;20114;-69
2022/06/12 22:25:51;;;;;;;6.57;4.28;;;;;;;22.53;51.35;99165.75;5086236;28;20082;-69
2022/06/12 22:28:19;;;;;;;4.60;3.47;;;;;;;22.47;51.34;99171.81;5086546;28;20060;-69
2022/06/12 22:30:46;;;;;;;4.03;3.53;;;;;;;22.43;51.64;99163.19;5086742;28;20060;-69
2022/06/12 22:33:15;;;;;;;5.13;3.70;;;;;;;22.40;51.63;99164.38;5087087;28;20106;-69
2022/06/12 22:35:42;;;;;;;5.10;3.70;;;;;;;22.31;51.88;99159.09;5086635;28;20048;-69
2022/06/12 22:38:09;;;;;;;3.90;3.35;;;;;;;22.30;51.81;99160.09;5086725;28;20060;-69
2022/06/12 22:40:36;;;;;;;5.50;4.15;;;;;;;22.06;52.25;99169.78;5086390;28;20105;-69
2022/06/12 22:43:03;;;;;;;5.03;3.80;;;;;;;21.99;52.99;99176.00;5086559;28;20369;-68
2022/06/12 22:45:33;;;;;;;5.50;3.92;;;;;;;21.87;53.56;99186.22;5086497;28;20125;-68
